createdAt,value
2022-09-15T00:01:02.616Z,11.70
2022-09-15T00:03:30.109Z,11.70
2022-09-15T00:05:56.964Z,11.60
2022-09-15T00:08:25.369Z,11.60
2022-09-15T00:11:02.250Z,11.60
2022-09-15T00:13:29.378Z,11.50
2022-09-15T00:15:56.029Z,11.50
2022-09-15T00:18:23.366Z,11.50
2022-09-15T00:20:50.106Z,11.50
2022-09-15T00:23:18.170Z,11.50
2022-09-15T00:25:47.242Z,11.50
2022-09-15T00:28:15.847Z,11.50
2022-09-15T00:30:44.463Z,11.50
2022-09-15T00:33:12.847Z,11.50
2022-09-15T00:35:44.658Z,11.40
2022-09-15T00:38:13.462Z,11.40
2022-09-15T00:40:45.616Z,11.40
2022-09-15T00:43:14.179Z,11.30
2022-09-15T00:45:41.086Z,11.30
2022-09-15T00:48:12.622Z,11.30
2022-09-15T00:50:41.334Z,11.30
2022-09-15T00:53:11.250Z,11.30
2022-09-15T00:55:45.938Z,11.30
2022-09-15T00:58:32.684Z,11.30
2022-09-15T01:01:02.367Z,11.20
2022-09-15T01:03:33.075Z,11.20
2022-09-15T01:06:13.595Z,11.10
2022-09-15T01:08:53.963Z,11.10
2022-09-15T01:11:21.432Z,11.00
2022-09-15T01:13:48.119Z,11.00
2022-09-15T01:16:29.870Z,11.00
2022-09-15T01:19:19.736Z,11.00
2022-09-15T01:22:33.047Z,10.90
2022-09-15T01:25:17.667Z,10.90
2022-09-15T01:28:12.432Z,10.80
2022-09-15T01:31:21.019Z,10.80
2022-09-15T01:34:19.173Z,10.80
2022-09-15T01:36:55.852Z,10.80
2022-09-15T01:39:27.038Z,10.90
2022-09-15T01:42:03.987Z,10.90
2022-09-15T01:44:45.022Z,10.80
2022-09-15T01:47:16.285Z,10.80
2022-09-15T01:49:59.073Z,10.80
2022-09-15T01:52:28.298Z,10.70
2022-09-15T01:55:03.482Z,10.60
2022-09-15T01:57:30.825Z,10.60
2022-09-15T01:59:57.425Z,10.60
2022-09-15T02:02:28.229Z,10.50
2022-09-15T02:05:20.665Z,10.50
2022-09-15T02:07:56.976Z,10.50
2022-09-15T02:10:36.822Z,10.50
2022-09-15T02:13:20.442Z,10.50
2022-09-15T02:15:51.427Z,10.60
2022-09-15T02:18:45.515Z,10.60
2022-09-15T02:21:23.239Z,10.60
2022-09-15T02:23:55.219Z,10.50
2022-09-15T02:26:27.663Z,10.50
2022-09-15T02:28:57.001Z,10.50
2022-09-15T02:31:25.850Z,10.60
2022-09-15T02:34:01.883Z,10.60
2022-09-15T02:36:30.680Z,10.70
2022-09-15T02:39:03.665Z,10.80
2022-09-15T02:41:30.495Z,10.90
2022-09-15T02:43:57.799Z,11.00
2022-09-15T02:46:24.539Z,11.10
2022-09-15T02:48:52.045Z,11.20
2022-09-15T02:51:18.915Z,11.30
2022-09-15T02:53:46.555Z,11.40
2022-09-15T02:56:13.520Z,11.40
2022-09-15T02:58:40.816Z,11.40
2022-09-15T03:01:15.407Z,11.40
2022-09-15T03:03:44.738Z,11.50
2022-09-15T03:06:16.286Z,11.60
2022-09-15T03:08:43.544Z,11.60
2022-09-15T03:11:10.685Z,11.60
2022-09-15T03:13:37.920Z,11.70
2022-09-15T03:16:10.499Z,11.70
2022-09-15T03:18:38.319Z,11.80
2022-09-15T03:21:07.877Z,11.90
2022-09-15T03:23:34.981Z,11.90
2022-09-15T03:26:03.081Z,11.90
2022-09-15T03:28:29.914Z,12.00
2022-09-15T03:30:57.163Z,12.00
2022-09-15T03:33:24.282Z,12.00
2022-09-15T03:35:52.035Z,12.10
2022-09-15T03:38:19.411Z,12.10
2022-09-15T03:40:58.995Z,12.20
2022-09-15T03:43:26.923Z,12.20
2022-09-15T03:45:55.116Z,12.20
2022-09-15T03:48:23.154Z,12.20
2022-09-15T03:50:50.998Z,12.20
2022-09-15T03:53:18.239Z,12.30
2022-09-15T03:55:45.932Z,12.30
2022-09-15T03:58:13.676Z,12.30
2022-09-15T04:00:41.573Z,12.30
2022-09-15T04:03:09.077Z,12.30
2022-09-15T04:05:37.287Z,12.30
2022-09-15T04:08:04.561Z,12.40
2022-09-15T04:10:32.163Z,12.40
2022-09-15T04:12:58.755Z,12.40
2022-09-15T04:15:26.028Z,12.40
2022-09-15T04:17:52.657Z,12.40
2022-09-15T04:20:20.047Z,12.40
2022-09-15T04:22:46.685Z,12.40
2022-09-15T04:25:14.313Z,12.40
2022-09-15T04:27:40.945Z,12.40
2022-09-15T04:30:09.434Z,12.30
2022-09-15T04:32:36.090Z,12.30
2022-09-15T04:35:04.678Z,12.20
2022-09-15T04:37:32.274Z,12.20
2022-09-15T04:40:00.109Z,12.10
2022-09-15T04:42:27.318Z,12.10
2022-09-15T04:44:54.574Z,12.00
2022-09-15T04:47:21.234Z,12.00
2022-09-15T04:49:48.726Z,11.90
2022-09-15T04:52:15.410Z,11.80
2022-09-15T04:54:42.676Z,11.80
2022-09-15T04:57:09.459Z,11.80
2022-09-15T04:59:36.860Z,11.70
2022-09-15T05:02:03.770Z,11.70
2022-09-15T05:04:31.190Z,11.70
2022-09-15T05:06:57.890Z,11.70
2022-09-15T05:09:26.639Z,11.70
2022-09-15T05:11:53.319Z,11.70
2022-09-15T05:14:20.334Z,11.80
2022-09-15T05:16:46.924Z,11.80
2022-09-15T05:19:14.390Z,11.80
2022-09-15T05:21:41.033Z,11.90
2022-09-15T05:24:08.380Z,11.90
2022-09-15T05:26:35.210Z,11.90
2022-09-15T05:29:02.490Z,12.00
2022-09-15T05:31:31.774Z,12.00
2022-09-15T05:34:01.810Z,12.10
2022-09-15T05:36:28.745Z,12.10
2022-09-15T05:38:56.888Z,12.20
2022-09-15T05:41:25.356Z,12.20
2022-09-15T05:43:53.668Z,12.40
2022-09-15T05:46:20.487Z,12.40
2022-09-15T05:48:47.950Z,12.50
2022-09-15T05:51:14.972Z,12.60
2022-09-15T05:53:42.378Z,12.70
2022-09-15T05:56:13.898Z,12.80
2022-09-15T05:58:43.206Z,12.90
2022-09-15T06:01:18.685Z,12.90
2022-09-15T06:03:46.520Z,13.00
2022-09-15T06:06:13.745Z,13.10
2022-09-15T06:08:44.534Z,13.10
2022-09-15T06:11:15.450Z,13.10
2022-09-15T06:13:43.722Z,13.20
2022-09-15T06:16:12.680Z,13.20
2022-09-15T06:18:41.504Z,13.20
2022-09-15T06:21:13.338Z,13.20
2022-09-15T06:23:41.374Z,13.20
2022-09-15T06:26:12.114Z,13.30
2022-09-15T06:28:40.794Z,13.30
2022-09-15T06:31:12.603Z,13.30
2022-09-15T06:33:44.993Z,13.30
2022-09-15T06:36:13.134Z,13.30
2022-09-15T06:38:41.106Z,13.40
2022-09-15T06:41:08.703Z,13.40
2022-09-15T06:43:36.677Z,13.50
2022-09-15T06:46:10.549Z,13.60
2022-09-15T06:48:39.006Z,13.70
2022-09-15T06:51:07.616Z,13.70
2022-09-15T06:53:36.755Z,13.70
2022-09-15T06:56:06.533Z,13.80
2022-09-15T06:58:39.363Z,13.80
2022-09-15T07:01:12.120Z,13.80
2022-09-15T07:03:44.127Z,13.90
2022-09-15T07:06:14.941Z,13.90
2022-09-15T07:08:42.743Z,14.10
2022-09-15T07:11:10.182Z,14.20
2022-09-15T07:13:38.267Z,14.30
2022-09-15T07:16:07.213Z,14.50
2022-09-15T07:18:39.691Z,14.70
2022-09-15T07:21:13.075Z,14.90
2022-09-15T07:23:40.444Z,15.00
2022-09-15T07:26:16.291Z,15.10
2022-09-15T07:28:46.885Z,15.10
2022-09-15T07:31:16.050Z,15.20
2022-09-15T07:33:44.973Z,15.40
2022-09-15T07:36:12.385Z,15.40
2022-09-15T07:38:43.269Z,15.70
2022-09-15T07:41:15.386Z,15.90
2022-09-15T07:43:48.013Z,16.20
2022-09-15T07:46:15.777Z,16.60
2022-09-15T07:48:51.942Z,16.70
2022-09-15T07:51:19.299Z,16.80
2022-09-15T07:53:48.514Z,16.70
2022-09-15T07:56:18.117Z,16.70
2022-09-15T07:58:46.054Z,16.70
2022-09-15T08:01:16.307Z,16.60
2022-09-15T08:03:46.547Z,16.50
2022-09-15T08:06:13.789Z,16.40
2022-09-15T08:08:41.826Z,16.20
2022-09-15T08:11:12.234Z,16.20
2022-09-15T08:13:42.627Z,16.30
2022-09-15T08:16:12.210Z,16.20
2022-09-15T08:18:42.119Z,16.30
2022-09-15T08:21:11.986Z,16.40
2022-09-15T08:23:39.717Z,16.60
2022-09-15T08:26:14.061Z,16.80
2022-09-15T08:28:42.630Z,17.00
2022-09-15T08:31:12.389Z,17.10
2022-09-15T08:33:45.234Z,17.20
2022-09-15T08:36:13.337Z,17.20
2022-09-15T08:38:41.351Z,17.30
2022-09-15T08:41:14.308Z,17.40
2022-09-15T08:43:51.663Z,17.60
2022-09-15T08:46:25.015Z,17.80
2022-09-15T08:49:04.821Z,18.00
2022-09-15T08:51:46.656Z,18.10
2022-09-15T08:54:27.264Z,18.10
2022-09-15T08:56:56.140Z,18.00
2022-09-15T08:59:25.509Z,18.00
2022-09-15T09:02:05.498Z,18.10
2022-09-15T09:05:09.857Z,18.30
2022-09-15T09:07:59.586Z,18.40
2022-09-15T09:10:49.265Z,18.30
2022-09-15T09:13:42.810Z,18.30
2022-09-15T09:16:38.473Z,18.20
2022-09-15T09:19:31.978Z,18.20
2022-09-15T09:22:09.523Z,18.20
2022-09-15T09:24:46.500Z,18.10
2022-09-15T09:27:18.463Z,18.20
2022-09-15T09:29:50.027Z,18.20
2022-09-15T09:32:27.321Z,18.20
2022-09-15T09:35:37.724Z,18.30
2022-09-15T09:38:04.764Z,18.50
2022-09-15T09:40:32.686Z,18.60
2022-09-15T09:43:00.944Z,18.70
2022-09-15T09:45:27.551Z,18.70
2022-09-15T09:48:02.133Z,18.70
2022-09-15T09:50:43.465Z,18.60
2022-09-15T09:53:20.117Z,18.70
2022-09-15T09:55:46.888Z,18.60
2022-09-15T09:58:21.585Z,18.60
2022-09-15T10:00:49.092Z,18.60
2022-09-15T10:03:17.256Z,18.70
2022-09-15T10:05:46.109Z,18.80
2022-09-15T10:08:20.458Z,18.90
2022-09-15T10:10:54.364Z,18.90
2022-09-15T10:13:21.661Z,18.90
2022-09-15T10:15:58.742Z,18.90
2022-09-15T10:18:31.123Z,18.90
2022-09-15T10:21:00.331Z,18.80
2022-09-15T10:23:29.997Z,18.70
2022-09-15T10:26:21.935Z,18.60
2022-09-15T10:29:23.187Z,18.60
2022-09-15T10:31:50.684Z,18.70
2022-09-15T10:34:26.579Z,18.70
2022-09-15T10:37:02.502Z,19.00
2022-09-15T10:39:48.653Z,19.10
2022-09-15T10:42:33.180Z,19.30
2022-09-15T10:45:39.413Z,19.40
2022-09-15T10:48:22.094Z,19.50
2022-09-15T10:51:16.168Z,19.70
2022-09-15T10:53:42.763Z,19.60
2022-09-15T10:56:33.775Z,19.60
2022-09-15T10:59:05.221Z,19.60
2022-09-15T11:01:52.310Z,19.40
2022-09-15T11:04:30.075Z,19.20
2022-09-15T11:07:15.500Z,19.10
2022-09-15T11:10:06.697Z,18.90
2022-09-15T11:12:56.460Z,18.70
2022-09-15T11:15:30.137Z,18.60
2022-09-15T11:18:25.561Z,18.50
2022-09-15T11:21:11.279Z,18.40
2022-09-15T11:23:53.014Z,18.30
2022-09-15T11:26:28.702Z,18.10
2022-09-15T11:29:05.942Z,18.10
2022-09-15T11:31:39.547Z,18.00
2022-09-15T11:34:23.740Z,18.10
2022-09-15T11:37:09.793Z,18.10
2022-09-15T11:40:07.575Z,18.20
2022-09-15T11:42:57.382Z,18.40
2022-09-15T11:45:29.069Z,18.70
2022-09-15T11:48:18.493Z,18.80
2022-09-15T11:50:48.999Z,18.90
2022-09-15T11:53:37.661Z,18.90
2022-09-15T11:56:26.111Z,18.60
2022-09-15T11:59:14.855Z,18.40
2022-09-15T12:02:10.312Z,18.00
2022-09-15T12:05:02.711Z,17.70
2022-09-15T12:07:32.995Z,17.40
2022-09-15T12:10:13.284Z,17.20
2022-09-15T12:12:41.864Z,17.00
2022-09-15T12:15:16.303Z,16.90
2022-09-15T12:18:06.716Z,16.80
2022-09-15T12:21:09.897Z,16.70
2022-09-15T12:23:51.715Z,16.70
2022-09-15T12:26:21.602Z,16.60
2022-09-15T12:28:54.147Z,16.50
2022-09-15T12:31:40.879Z,16.50
2022-09-15T12:34:32.285Z,16.40
2022-09-15T12:37:12.605Z,16.30
2022-09-15T12:39:44.787Z,16.20
2022-09-15T12:42:23.809Z,16.10
2022-09-15T12:45:02.038Z,15.90
2022-09-15T12:47:49.896Z,15.90
2022-09-15T12:50:17.088Z,15.90
2022-09-15T12:52:58.093Z,16.00
2022-09-15T12:55:33.301Z,16.00
2022-09-15T12:58:07.004Z,16.10
2022-09-15T13:01:14.249Z,16.20
2022-09-15T13:03:53.783Z,16.50
2022-09-15T13:06:27.943Z,16.60
2022-09-15T13:09:05.194Z,16.70
2022-09-15T13:11:38.514Z,16.80
2022-09-15T13:14:08.039Z,16.80
2022-09-15T13:16:39.614Z,16.80
2022-09-15T13:19:12.364Z,16.80
2022-09-15T13:21:43.530Z,16.80
2022-09-15T13:24:21.316Z,16.70
2022-09-15T13:26:52.760Z,16.80
2022-09-15T13:29:20.245Z,16.80
2022-09-15T13:32:26.621Z,16.90
2022-09-15T13:35:20.860Z,17.10
2022-09-15T13:38:32.547Z,17.30
2022-09-15T13:41:08.459Z,17.50
2022-09-15T13:43:58.171Z,17.70
2022-09-15T13:46:50.398Z,17.80
2022-09-15T13:49:39.064Z,17.80
2022-09-15T13:52:26.128Z,17.80
2022-09-15T13:55:14.454Z,17.90
2022-09-15T14:00:51.677Z,18.00
2022-09-15T14:03:26.041Z,18.00
2022-09-15T14:05:54.078Z,18.00
2022-09-15T14:08:28.562Z,17.90
2022-09-15T14:11:01.423Z,18.00
2022-09-15T14:13:30.341Z,18.00
2022-09-15T14:16:12.568Z,18.10
2022-09-15T14:18:45.157Z,18.10
2022-09-15T14:21:23.357Z,18.10
2022-09-15T14:23:53.350Z,18.10
2022-09-15T14:26:23.329Z,18.10
2022-09-15T14:28:58.918Z,18.10
2022-09-15T14:31:36.259Z,18.00
2022-09-15T14:34:07.106Z,18.00
2022-09-15T14:36:35.074Z,18.00
2022-09-15T14:39:12.231Z,18.10
2022-09-15T14:41:39.992Z,18.00
2022-09-15T14:45:54.564Z,18.00
2022-09-15T14:47:21.667Z,17.90
2022-09-15T14:49:48.895Z,17.90
2022-09-15T14:52:25.153Z,17.90
2022-09-15T14:54:58.891Z,17.90
2022-09-15T14:57:31.336Z,17.90
2022-09-15T15:00:06.932Z,17.90
2022-09-15T15:03:06.041Z,17.90
2022-09-15T15:05:34.228Z,17.90
2022-09-15T15:08:07.083Z,18.00
2022-09-15T15:10:36.031Z,18.00
2022-09-15T15:13:09.495Z,17.90
2022-09-15T15:15:37.259Z,17.90
2022-09-15T15:18:07.294Z,17.90
2022-09-15T15:20:34.077Z,17.90
2022-09-15T15:23:24.830Z,17.90
2022-09-15T15:25:52.588Z,17.90
2022-09-15T15:28:34.125Z,17.80
2022-09-15T15:31:29.835Z,17.70
2022-09-15T15:33:59.730Z,17.50
2022-09-15T15:36:28.476Z,17.40
2022-09-15T15:39:01.505Z,17.40
2022-09-15T15:41:41.417Z,17.40
2022-09-15T15:44:26.831Z,17.30
2022-09-15T15:47:19.289Z,17.20
2022-09-15T15:50:11.765Z,17.30
2022-09-15T15:52:33.791Z,17.30
2022-09-15T15:55:00.815Z,17.40
2022-09-15T15:57:32.858Z,17.40
2022-09-15T16:00:00.816Z,17.40
2022-09-15T16:02:32.636Z,17.30
2022-09-15T16:04:59.860Z,17.20
2022-09-15T16:07:31.101Z,17.00
2022-09-15T16:10:01.198Z,16.80
2022-09-15T16:12:30.757Z,16.70
2022-09-15T16:15:00.036Z,16.50
2022-09-15T16:17:26.690Z,16.40
2022-09-15T16:19:53.644Z,16.50
2022-09-15T16:22:20.845Z,16.40
2022-09-15T16:24:47.599Z,16.40
2022-09-15T16:27:16.203Z,16.40
2022-09-15T16:29:44.151Z,16.40
2022-09-15T16:32:19.887Z,16.40
2022-09-15T16:34:48.211Z,16.30
2022-09-15T16:37:14.819Z,16.30
2022-09-15T16:39:41.696Z,16.20
2022-09-15T16:42:10.242Z,16.20
2022-09-15T16:44:38.729Z,16.20
2022-09-15T16:47:06.621Z,16.10
2022-09-15T16:49:37.573Z,16.10
2022-09-15T16:52:04.261Z,16.10
2022-09-15T16:54:31.576Z,16.00
2022-09-15T16:56:58.176Z,16.00
2022-09-15T16:59:25.673Z,15.90
2022-09-15T17:01:53.629Z,15.90
2022-09-15T17:04:21.085Z,15.90
2022-09-15T17:06:47.718Z,15.90
2022-09-15T17:09:14.985Z,15.90
2022-09-15T17:11:41.574Z,15.80
2022-09-15T17:14:13.126Z,15.80
2022-09-15T17:16:39.835Z,15.70
2022-09-15T17:19:06.385Z,15.70
2022-09-15T17:21:33.006Z,15.60
2022-09-15T17:23:59.890Z,15.50
2022-09-15T17:26:31.073Z,15.50
2022-09-15T17:28:58.481Z,15.40
2022-09-15T17:31:25.765Z,15.40
2022-09-15T17:33:53.284Z,15.30
2022-09-15T17:36:20.167Z,15.30
2022-09-15T17:38:49.234Z,15.20
2022-09-15T17:41:18.546Z,15.20
2022-09-15T17:43:46.402Z,15.20
2022-09-15T17:46:13.376Z,15.10
2022-09-15T17:48:40.387Z,15.10
2022-09-15T17:51:12.709Z,15.10
2022-09-15T17:53:39.631Z,15.10
2022-09-15T17:56:06.437Z,15.10
2022-09-15T17:58:33.727Z,15.10
2022-09-15T18:01:00.711Z,15.00
2022-09-15T18:03:35.167Z,15.00
2022-09-15T18:06:10.011Z,15.00
2022-09-15T18:08:37.481Z,15.00
2022-09-15T18:11:05.242Z,15.00
2022-09-15T18:13:33.686Z,14.90
2022-09-15T18:16:10.900Z,14.90
2022-09-15T18:18:40.156Z,14.90
2022-09-15T18:21:09.761Z,14.80
2022-09-15T18:23:38.216Z,14.80
2022-09-15T18:26:04.967Z,14.80
2022-09-15T18:28:31.813Z,14.80
2022-09-15T18:30:58.635Z,14.70
2022-09-15T18:33:25.978Z,14.70
2022-09-15T18:35:55.844Z,14.70
2022-09-15T18:38:28.939Z,14.70
2022-09-15T18:40:56.906Z,14.70
2022-09-15T18:43:26.217Z,14.60
2022-09-15T18:45:58.090Z,14.60
2022-09-15T18:48:24.837Z,14.60
2022-09-15T18:50:53.006Z,14.50
2022-09-15T18:53:19.809Z,14.50
2022-09-15T18:55:47.594Z,14.50
2022-09-15T18:58:14.985Z,14.50
2022-09-15T19:00:41.742Z,14.50
2022-09-15T19:03:09.356Z,14.40
2022-09-15T19:05:37.287Z,14.40
2022-09-15T19:08:04.706Z,14.40
2022-09-15T19:10:31.645Z,14.40
2022-09-15T19:12:58.330Z,14.30
2022-09-15T19:15:25.277Z,14.20
2022-09-15T19:17:52.157Z,14.20
2022-09-15T19:20:53.375Z,14.10
2022-09-15T19:23:25.226Z,14.10
2022-09-15T19:25:52.916Z,14.00
2022-09-15T19:28:19.507Z,13.90
2022-09-15T19:30:46.168Z,13.90
2022-09-15T19:33:13.166Z,13.80
2022-09-15T19:35:42.152Z,13.70
2022-09-15T19:38:17.811Z,13.60
2022-09-15T19:41:14.551Z,13.50
2022-09-15T19:43:42.014Z,13.40
2022-09-15T19:46:18.854Z,13.40
2022-09-15T20:08:21.794Z,13.40
2022-09-15T20:10:56.465Z,13.30
2022-09-15T20:13:24.562Z,13.20
2022-09-15T20:16:01.542Z,13.10
2022-09-15T20:18:29.202Z,13.00
2022-09-15T20:20:56.618Z,12.90
2022-09-15T20:23:23.826Z,12.80
2022-09-15T20:26:01.865Z,12.80
2022-09-15T20:28:29.750Z,12.70
2022-09-15T20:31:15.111Z,12.60
2022-09-15T20:33:46.061Z,12.60
2022-09-15T20:36:16.357Z,12.50
2022-09-15T20:38:44.419Z,12.50
2022-09-15T20:41:13.824Z,12.40
2022-09-15T20:43:42.430Z,12.40
2022-09-15T20:46:13.287Z,12.30
2022-09-15T20:48:41.158Z,12.30
2022-09-15T20:51:16.522Z,12.30
2022-09-15T20:53:46.755Z,12.30
2022-09-15T20:56:15.082Z,12.20
2022-09-15T20:58:42.974Z,12.30
2022-09-15T21:01:22.075Z,12.30
2022-09-15T21:03:50.215Z,12.40
2022-09-15T21:06:19.139Z,12.40
2022-09-15T21:08:47.801Z,12.50
2022-09-15T21:11:16.572Z,12.60
2022-09-15T21:13:44.335Z,12.60
2022-09-15T21:16:14.949Z,12.70
2022-09-15T21:18:43.763Z,12.70
2022-09-15T21:21:19.096Z,12.80
2022-09-15T21:23:52.384Z,12.80
2022-09-15T21:26:20.121Z,12.80
2022-09-15T21:28:48.000Z,12.90
2022-09-15T21:31:20.134Z,12.90
2022-09-15T21:33:48.352Z,12.90
2022-09-15T21:36:17.854Z,12.90
2022-09-15T21:38:45.363Z,13.00
2022-09-15T21:41:15.491Z,13.00
2022-09-15T21:43:45.068Z,12.90
2022-09-15T21:46:15.285Z,12.90
2022-09-15T21:48:44.207Z,12.80
2022-09-15T21:51:13.021Z,12.70
2022-09-15T21:53:42.517Z,12.60
2022-09-15T21:56:10.408Z,12.50
2022-09-15T21:58:42.966Z,12.50
2022-09-15T22:01:28.165Z,12.50
2022-09-15T22:03:57.238Z,12.50
2022-09-15T22:06:32.024Z,12.50
2022-09-15T22:09:05.813Z,12.50
2022-09-15T22:11:34.161Z,12.50
2022-09-15T22:14:02.814Z,12.60
2022-09-15T22:16:30.165Z,12.60
2022-09-15T22:18:57.389Z,12.60
2022-09-15T22:21:26.790Z,12.60
2022-09-15T22:23:56.062Z,12.60
2022-09-15T22:26:28.665Z,12.60
2022-09-15T22:28:56.199Z,12.60
2022-09-15T22:31:24.288Z,12.60
2022-09-15T22:33:51.359Z,12.70
2022-09-15T22:36:25.115Z,12.70
2022-09-15T22:38:55.179Z,12.70
2022-09-15T22:41:26.006Z,12.70
2022-09-15T22:43:52.711Z,12.70
2022-09-15T22:46:21.519Z,12.70
2022-09-15T22:48:48.140Z,12.70
2022-09-15T22:51:16.048Z,12.70
2022-09-15T22:53:42.719Z,12.70
2022-09-15T22:56:20.117Z,12.70
2022-09-15T22:58:48.514Z,12.70
2022-09-15T23:01:18.900Z,12.60
2022-09-15T23:04:07.180Z,12.60
2022-09-15T23:06:35.058Z,12.60
2022-09-15T23:09:05.381Z,12.60
2022-09-15T23:11:33.501Z,12.60
2022-09-15T23:14:01.016Z,12.60
2022-09-15T23:16:29.901Z,12.60
2022-09-15T23:18:56.536Z,12.60
2022-09-15T23:21:23.594Z,12.70
2022-09-15T23:23:52.811Z,12.60
2022-09-15T23:26:23.573Z,12.70
2022-09-15T23:28:50.241Z,12.70
2022-09-15T23:31:18.413Z,12.60
2022-09-15T23:33:45.325Z,12.70
2022-09-15T23:36:15.364Z,12.60
2022-09-15T23:38:44.212Z,12.60
2022-09-15T23:41:13.275Z,12.50
2022-09-15T23:43:40.011Z,12.50
2022-09-15T23:46:07.332Z,12.50
2022-09-15T23:48:34.330Z,12.50
2022-09-15T23:51:01.971Z,12.50
2022-09-15T23:53:29.192Z,12.40
2022-09-15T23:55:56.945Z,12.40
2022-09-15T23:58:23.794Z,12.30
